FSIA/SEZ METAR and TAF weather

Enter ICAO airport designator
Station Type Date Time Source
FSIA METAR 2018/07/17 00:00 UTC NOAA

FSIA 170000Z AUTO VRB07G18KT //// R13///// // SCT023/// 25/20 Q1012


Station Type Date Time Source
FSIA Decoded METAR 2018/07/17 00:00 UTC NOAA

Seychelles Inter-National Airport, Seychelles (FSIA) 04-40S 055-31E 3M
Jul 16, 2018 - 08:00 PM EDT / 2018.07.17 0000 UTC
Wind: Variable at 8 MPH (7 KT) gusting to 21 MPH (18 KT):0
Sky conditions: partly cloudy
Temperature: 77 F (25 C)
Dew Point: 68 F (20 C)
Relative Humidity: 73%
Pressure (altimeter): 29.88 in. Hg (1012 hPa)
ob: FSIA 170000Z AUTO VRB07G18KT //// R13///// // SCT023/// 25/20 Q1012
cycle: 0

Station Type Date Time Source
FSIA TAF 2018/07/16 18:09 UTC NOAA

TAF FSIA 161705Z 1618/1718 14015G25KT 9999 SCT024 PROB40
TEMPO 1620/1704 -SHRA BKN020


Example: see airport list